Time;durP1;ratioP1;P1;durP2;ratioP2;P2;SDS_P1;SDS_P2;PMS_P1;PMS_P2;Temp;Humidity;BMP_temperature;BMP_pressure;BME280_temperature;BME280_humidity;BME280_pressure;Samples;Min_cycle;Max_cycle;Signal;HPM_P1;HPM_P2
2021/10/02 00:45:32;;;;;;;4.72;3.85;;;;;;;13.96;68.14;100700.38;5047237;28;20039;-41
2021/10/02 00:47:57;;;;;;;4.47;4.07;;;;;;;13.95;68.40;100707.47;5042833;28;20040;-40
2021/10/02 00:50:23;;;;;;;4.97;4.47;;;;;;;13.96;68.41;100692.41;5045414;28;20038;-40
2021/10/02 00:52:48;;;;;;;3.60;3.30;;;;;;;13.95;68.46;100696.88;5046092;28;20022;-40
2021/10/02 00:55:14;;;;;;;4.07;3.72;;;;;;;13.94;68.31;100692.44;5048930;28;20052;-42
2021/10/02 00:57:39;;;;;;;4.18;3.80;;;;;;;13.95;68.28;100688.91;5047333;28;20024;-40
2021/10/02 01:00:06;;;;;;;4.50;3.72;;;;;;;13.94;68.33;100695.09;5042054;28;20024;-41
2021/10/02 01:02:37;;;;;;;4.75;4.28;;;;;;;13.95;68.31;100691.56;5045901;28;20025;-41
2021/10/02 01:05:41;;;;;;;5.18;4.68;;;;;;;13.95;68.24;100691.56;5045587;28;20061;-41
2021/10/02 01:08:12;;;;;;;4.72;3.83;;;;;;;13.94;68.30;100689.78;5043618;28;20029;-40
2021/10/02 01:10:49;;;;;;;4.97;4.32;;;;;;;13.94;68.28;100689.78;5044678;28;20024;-40
2021/10/02 01:13:28;;;;;;;4.03;3.63;;;;;;;13.94;68.30;100686.28;5035133;28;20043;-41
2021/10/02 01:16:01;;;;;;;4.38;3.95;;;;;;;13.93;68.44;100681.88;5041221;28;20108;-41
2021/10/02 01:18:33;;;;;;;6.00;4.35;;;;;;;13.93;68.31;100677.44;5048724;28;20068;-40
2021/10/02 01:21:14;;;;;;;4.95;4.47;;;;;;;13.93;68.29;100684.53;5040331;28;20499;-40
2021/10/02 01:23:48;;;;;;;5.83;4.33;;;;;;;13.93;68.21;100676.56;5046671;28;20079;-41
2021/10/02 01:26:18;;;;;;;4.63;4.13;;;;;;;13.92;68.24;100681.03;5042714;28;20276;-40
2021/10/02 01:28:45;;;;;;;4.88;4.47;;;;;;;13.93;68.31;100671.25;5042803;28;20114;-40
2021/10/02 01:31:23;;;;;;;4.90;4.32;;;;;;;13.92;68.32;100675.72;5044231;28;20538;-40
2021/10/02 01:34:07;;;;;;;4.93;4.50;;;;;;;13.91;68.21;100663.34;5042260;28;20025;-40
2021/10/02 01:36:48;;;;;;;4.82;4.30;;;;;;;13.92;68.35;100672.19;5042537;28;20045;-40
2021/10/02 01:47:31;;;;;;;4.75;4.35;;;;;;;13.90;68.35;100661.63;5039644;28;20032;-41
2021/10/02 01:49:57;;;;;;;4.47;4.07;;;;;;;13.89;68.21;100667.81;5040402;28;20415;-40
2021/10/02 01:52:26;;;;;;;4.70;4.30;;;;;;;13.89;68.36;100653.69;5046908;28;20510;-40
2021/10/02 01:54:54;;;;;;;4.57;3.80;;;;;;;13.90;68.34;100666.06;5027092;28;20021;-40
2021/10/02 01:57:22;;;;;;;4.95;4.55;;;;;;;13.89;68.15;100659.88;5041286;28;20450;-41
2021/10/02 01:59:48;;;;;;;4.57;4.18;;;;;;;13.89;68.36;100659.00;5042519;28;20025;-40
2021/10/02 02:02:14;;;;;;;4.40;4.00;;;;;;;13.89;68.39;100659.88;5045677;28;20044;-41
2021/10/02 02:04:40;;;;;;;6.60;4.72;;;;;;;13.89;68.41;100665.19;5034671;28;20561;-41
2021/10/02 02:07:06;;;;;;;4.70;4.13;;;;;;;13.89;68.33;100664.28;5044092;28;20394;-40
2021/10/02 02:09:37;;;;;;;5.07;3.72;;;;;;;13.88;68.47;100666.09;5029349;28;20056;-42
2021/10/02 02:12:04;;;;;;;4.80;4.20;;;;;;;13.89;68.47;100659.00;5043798;28;20021;-42
2021/10/02 02:14:30;;;;;;;4.80;4.30;;;;;;;13.88;68.39;100659.91;5041568;28;20415;-42
2021/10/02 02:16:55;;;;;;;4.63;4.20;;;;;;;13.87;68.39;100648.41;5043387;28;20475;-41
2021/10/02 02:19:22;;;;;;;4.53;4.13;;;;;;;13.87;68.36;100653.72;5043704;28;20036;-41
2021/10/02 02:21:48;;;;;;;4.30;3.90;;;;;;;13.87;68.48;100653.72;5027253;28;20021;-42
2021/10/02 02:24:13;;;;;;;4.88;4.47;;;;;;;13.86;68.34;100649.34;5044203;28;20098;-42
2021/10/02 02:26:39;;;;;;;4.80;4.30;;;;;;;13.86;68.32;100649.34;5044545;28;20449;-42
2021/10/02 02:29:05;;;;;;;4.15;3.85;;;;;;;13.87;68.44;100650.22;5041825;28;20029;-42
2021/10/02 02:31:31;;;;;;;7.13;3.88;;;;;;;13.86;68.52;100649.34;5048021;28;20025;-42
2021/10/02 02:33:56;;;;;;;4.15;3.78;;;;;;;13.87;68.41;100660.81;5042257;28;20060;-41
2021/10/02 02:36:22;;;;;;;5.22;4.50;;;;;;;13.84;68.30;100649.38;5041623;28;20029;-41
2021/10/02 02:38:47;;;;;;;4.97;4.43;;;;;;;13.86;68.25;100654.63;5043476;28;20070;-40
2021/10/02 02:41:13;;;;;;;4.13;3.78;;;;;;;13.86;68.49;100652.00;5043637;28;20104;-40
2021/10/02 02:43:38;;;;;;;4.90;4.50;;;;;;;13.85;68.43;100659.06;5042641;28;20032;-41
2021/10/02 02:46:08;;;;;;;4.45;4.05;;;;;;;13.85;68.47;100667.00;5045126;28;20029;-41
2021/10/02 02:48:40;;;;;;;4.45;4.05;;;;;;;13.85;68.58;100663.50;5038837;28;20079;-41
2021/10/02 02:51:08;;;;;;;4.68;4.20;;;;;;;13.85;68.41;100658.22;5042086;28;20375;-41
2021/10/02 02:53:33;;;;;;;4.60;4.20;;;;;;;13.85;68.38;100660.84;5043126;28;20029;-41
2021/10/02 02:56:08;;;;;;;5.63;4.23;;;;;;;13.84;68.42;100664.44;5040693;28;20071;-41
2021/10/02 02:58:34;;;;;;;4.68;4.28;;;;;;;13.84;68.38;100667.06;5046707;28;20033;-40
2021/10/02 03:01:01;;;;;;;4.30;3.90;;;;;;;13.82;68.36;100669.75;5037463;28;20076;-40
2021/10/02 03:03:28;;;;;;;4.95;4.40;;;;;;;13.84;68.50;100667.06;5042767;28;20022;-41
2021/10/02 03:05:58;;;;;;;4.68;4.28;;;;;;;13.83;68.59;100671.50;5043075;28;20090;-41
2021/10/02 03:08:24;;;;;;;5.00;4.20;;;;;;;13.84;68.53;100672.38;5044075;28;20039;-41
2021/10/02 03:10:51;;;;;;;4.72;4.30;;;;;;;13.82;68.59;100664.47;5042533;28;20095;-40
2021/10/02 03:13:18;;;;;;;4.32;3.92;;;;;;;13.82;68.56;100663.56;5039197;28;20029;-40
2021/10/02 03:15:46;;;;;;;4.35;3.95;;;;;;;13.82;68.40;100667.09;5041148;28;20474;-40
2021/10/02 03:18:13;;;;;;;5.05;4.10;;;;;;;13.82;68.66;100668.88;5021366;28;20072;-40
2021/10/02 03:20:39;;;;;;;4.65;4.25;;;;;;;13.82;68.57;100658.28;5043322;28;20054;-40
2021/10/02 03:23:04;;;;;;;4.50;4.07;;;;;;;13.81;68.48;100659.19;5037518;28;20060;-40
2021/10/02 03:25:31;;;;;;;4.38;3.97;;;;;;;13.81;68.46;100651.22;5031585;28;20368;-40
2021/10/02 03:27:58;;;;;;;4.65;4.30;;;;;;;13.81;68.48;100651.22;5041309;28;20053;-39
2021/10/02 03:30:24;;;;;;;5.32;4.03;;;;;;;13.81;68.53;100651.22;5042667;28;20029;-41
2021/10/02 03:32:50;;;;;;;4.22;3.85;;;;;;;13.80;68.39;100646.81;5042569;28;20028;-40
2021/10/02 03:35:17;;;;;;;4.88;4.47;;;;;;;13.80;68.65;100644.16;5040564;28;20510;-42
2021/10/02 03:37:42;;;;;;;4.43;4.10;;;;;;;13.80;68.46;100634.44;5043305;28;20036;-41
2021/10/02 03:40:09;;;;;;;5.45;4.45;;;;;;;13.80;68.52;100638.88;5041639;28;20022;-40
2021/10/02 03:42:50;;;;;;;4.60;4.15;;;;;;;13.80;68.45;100630.91;5042139;28;20025;-40
2021/10/02 03:45:16;;;;;;;4.00;3.70;;;;;;;13.80;68.66;100638.88;5020984;28;20021;-42
2021/10/02 03:47:42;;;;;;;4.50;4.15;;;;;;;13.80;68.26;100634.44;5042209;28;20033;-39
2021/10/02 03:50:08;;;;;;;4.50;4.10;;;;;;;13.78;68.47;100623.03;5041312;28;20037;-39
2021/10/02 03:52:34;;;;;;;4.45;4.15;;;;;;;13.77;68.58;100634.50;5038930;28;20029;-39
2021/10/02 03:54:59;;;;;;;4.40;3.95;;;;;;;13.75;68.47;100623.09;5042759;28;20105;-40
2021/10/02 03:57:24;;;;;;;4.85;4.25;;;;;;;13.78;68.69;100648.66;5040302;28;20104;-41
2021/10/02 03:59:50;;;;;;;4.78;4.38;;;;;;;13.78;68.69;100651.31;5045513;28;20475;-40
2021/10/02 04:02:15;;;;;;;4.18;3.88;;;;;;;13.77;68.50;100647.75;5042133;28;20120;-40
2021/10/02 04:04:40;;;;;;;5.13;4.63;;;;;;;13.77;68.77;100631.00;5041167;28;20128;-40
2021/10/02 04:07:06;;;;;;;4.25;3.88;;;;;;;13.77;68.57;100638.97;5041898;28;20033;-41
2021/10/02 04:09:31;;;;;;;5.15;4.65;;;;;;;13.76;68.74;100631.88;5042585;28;20029;-40
2021/10/02 04:11:57;;;;;;;4.18;3.78;;;;;;;13.75;68.77;100631.03;5044466;28;20032;-40
2021/10/02 04:14:22;;;;;;;4.45;4.05;;;;;;;13.76;68.68;100642.50;5044565;28;20035;-41
2021/10/02 04:16:47;;;;;;;5.45;4.03;;;;;;;13.75;68.58;100649.59;5043153;28;20024;-40
2021/10/02 04:19:13;;;;;;;4.22;3.83;;;;;;;13.75;68.61;100651.38;5043035;28;20037;-40
2021/10/02 04:21:38;;;;;;;4.25;3.88;;;;;;;13.76;68.98;100647.78;5043899;28;20099;-40
2021/10/02 04:24:04;;;;;;;4.32;3.92;;;;;;;13.75;68.60;100646.94;5036409;28;20029;-40
2021/10/02 04:26:30;;;;;;;4.60;4.20;;;;;;;13.74;68.73;100647.81;5041047;28;20107;-40
2021/10/02 04:28:55;;;;;;;4.53;3.88;;;;;;;13.74;68.83;100639.88;5041488;28;20418;-40
2021/10/02 04:31:20;;;;;;;4.60;4.20;;;;;;;13.73;68.70;100643.44;5039909;28;20108;-41
2021/10/02 04:33:46;;;;;;;4.30;4.00;;;;;;;13.73;68.70;100641.69;5040507;28;20024;-41
2021/10/02 04:36:12;;;;;;;4.43;3.97;;;;;;;13.73;68.75;100638.13;5041684;28;20032;-40
2021/10/02 04:38:37;;;;;;;4.15;3.72;;;;;;;13.73;68.83;100646.97;5041059;28;20014;-41
2021/10/02 04:41:03;;;;;;;4.28;3.88;;;;;;;13.72;68.73;100639.06;5041239;28;20028;-41
2021/10/02 04:43:28;;;;;;;4.00;3.60;;;;;;;13.72;68.73;100639.94;5042283;28;20547;-40
2021/10/02 04:45:54;;;;;;;4.47;4.07;;;;;;;13.71;68.65;100635.53;5043489;28;20033;-40
2021/10/02 04:48:19;;;;;;;4.43;4.03;;;;;;;13.73;68.87;100648.75;5043376;28;20064;-39
2021/10/02 04:50:44;;;;;;;4.28;3.88;;;;;;;13.72;68.59;100647.91;5041070;28;20079;-40
2021/10/02 04:53:10;;;;;;;4.20;3.88;;;;;;;13.70;68.76;100641.75;5043594;28;20026;-40
2021/10/02 04:55:35;;;;;;;4.53;4.13;;;;;;;13.71;69.00;100645.28;5041341;28;20078;-40
2021/10/02 04:58:00;;;;;;;4.93;4.00;;;;;;;13.70;68.77;100644.38;5047609;28;20083;-40
2021/10/02 05:00:26;;;;;;;4.28;3.97;;;;;;;13.71;68.56;100643.47;5044118;28;20033;-40
2021/10/02 05:02:51;;;;;;;4.30;3.80;;;;;;;13.71;68.49;100635.53;5042884;28;20025;-41
2021/10/02 05:05:16;;;;;;;4.22;3.83;;;;;;;13.70;68.86;100644.38;5037190;28;20033;-41
2021/10/02 05:07:42;;;;;;;4.07;3.47;;;;;;;13.70;68.80;100651.47;5041567;28;20056;-41
2021/10/02 05:10:07;;;;;;;3.88;3.47;;;;;;;13.70;68.97;100649.69;5043068;28;20101;-41
2021/10/02 05:12:33;;;;;;;3.92;3.63;;;;;;;13.69;68.85;100645.31;5039587;28;20475;-40
2021/10/02 05:14:58;;;;;;;4.78;3.80;;;;;;;13.69;68.80;100655.03;5041769;28;20025;-41
2021/10/02 05:17:23;;;;;;;4.55;3.75;;;;;;;13.69;69.04;100650.59;5041374;28;20025;-41
2021/10/02 05:19:51;;;;;;;3.90;3.60;;;;;;;13.70;68.91;100654.09;5046157;28;20037;-41
2021/10/02 05:22:16;;;;;;;5.00;3.90;;;;;;;13.69;68.98;100658.56;5040205;28;20091;-41
2021/10/02 05:24:42;;;;;;;3.45;3.25;;;;;;;13.69;68.99;100652.38;5051498;28;20017;-42
2021/10/02 05:27:09;;;;;;;4.50;3.83;;;;;;;13.68;68.88;100656.81;5048499;28;20040;-40
2021/10/02 05:29:35;;;;;;;4.28;3.88;;;;;;;13.69;68.88;100665.63;5046693;28;20036;-40
2021/10/02 05:32:02;;;;;;;3.97;3.55;;;;;;;13.68;68.87;100656.81;5046250;28;20026;-40
2021/10/02 05:34:28;;;;;;;4.70;4.30;;;;;;;13.68;68.73;100654.16;5046289;28;20024;-40
2021/10/02 05:36:53;;;;;;;3.85;3.55;;;;;;;13.68;68.84;100659.47;5048549;28;20032;-40
2021/10/02 05:39:18;;;;;;;4.05;3.75;;;;;;;13.68;68.76;100662.13;5040386;28;20142;-40
2021/10/02 05:41:44;;;;;;;4.70;4.22;;;;;;;13.67;68.79;100664.81;5046158;28;20494;-40
2021/10/02 05:44:09;;;;;;;4.22;3.92;;;;;;;13.67;68.88;100655.06;5031522;28;20040;-42
2021/10/02 05:46:34;;;;;;;3.72;3.42;;;;;;;13.67;69.02;100656.84;5043329;28;20029;-41
2021/10/02 05:49:00;;;;;;;4.30;3.97;;;;;;;13.66;69.10;100658.63;5042757;28;20044;-41
2021/10/02 05:51:25;;;;;;;4.10;3.60;;;;;;;13.65;69.19;100648.94;5047615;28;20052;-40
2021/10/02 05:53:51;;;;;;;3.50;3.25;;;;;;;13.66;69.08;100655.97;5049488;28;20394;-40
2021/10/02 05:56:16;;;;;;;3.85;3.55;;;;;;;13.66;68.91;100661.28;5042356;28;20383;-41
2021/10/02 05:58:42;;;;;;;4.32;3.92;;;;;;;13.66;69.15;100658.63;5045870;28;20419;-40
2021/10/02 06:01:07;;;;;;;4.13;3.83;;;;;;;13.65;69.00;100659.53;5042933;28;20021;-42
2021/10/02 06:03:32;;;;;;;4.00;3.70;;;;;;;13.66;69.07;100669.22;5047418;28;20052;-42
2021/10/02 06:06:00;;;;;;;4.03;3.63;;;;;;;13.66;69.02;100666.56;5040989;28;20029;-42
2021/10/02 06:08:28;;;;;;;6.07;4.50;;;;;;;13.65;68.98;100666.59;5044495;28;20053;-40
2021/10/02 06:10:54;;;;;;;4.53;3.55;;;;;;;13.66;69.05;100668.34;5027803;28;20033;-40
2021/10/02 06:13:20;;;;;;;4.15;3.78;;;;;;;13.65;69.00;100672.78;5041171;28;20028;-41
2021/10/02 06:15:45;;;;;;;3.88;3.58;;;;;;;13.66;69.15;100669.22;5046606;28;20025;-41
2021/10/02 06:18:11;;;;;;;4.03;3.63;;;;;;;13.65;69.09;100674.56;5045170;28;20026;-41
2021/10/02 06:20:37;;;;;;;3.63;3.33;;;;;;;13.65;69.13;100677.19;5046461;28;20016;-41
2021/10/02 06:23:04;;;;;;;3.83;3.38;;;;;;;13.64;69.06;100671.00;5040325;28;20045;-41
2021/10/02 06:25:32;;;;;;;4.25;3.85;;;;;;;13.64;69.08;100659.56;5041116;28;20025;-41
2021/10/02 06:27:57;;;;;;;4.00;3.63;;;;;;;13.63;68.99;100658.69;5043001;28;20171;-41
2021/10/02 06:30:23;;;;;;;4.97;4.25;;;;;;;13.62;69.00;100661.38;5047099;28;20542;-41
2021/10/02 06:32:48;;;;;;;4.95;3.85;;;;;;;13.63;68.81;100666.63;5047814;28;20036;-41
2021/10/02 06:35:13;;;;;;;5.07;3.83;;;;;;;13.63;69.10;100661.34;5047319;28;20025;-41
2021/10/02 06:37:38;;;;;;;4.25;3.78;;;;;;;13.62;68.98;100656.94;5043270;28;20067;-41
2021/10/02 06:40:08;;;;;;;3.85;3.55;;;;;;;13.63;69.05;100656.03;5041854;28;20022;-41
2021/10/02 06:42:33;;;;;;;6.85;4.18;;;;;;;13.62;69.12;100643.69;5045431;28;20755;-41
2021/10/02 06:44:59;;;;;;;4.05;3.63;;;;;;;13.62;68.95;100651.66;5041170;28;20017;-40
2021/10/02 06:47:24;;;;;;;4.68;4.28;;;;;;;13.62;69.11;100659.59;5042001;28;20037;-44
2021/10/02 06:49:51;;;;;;;4.70;4.15;;;;;;;13.62;69.14;100645.47;5043091;28;20022;-41
2021/10/02 06:52:16;;;;;;;4.25;3.85;;;;;;;13.62;69.08;100651.66;5043521;28;20028;-42
2021/10/02 06:54:41;;;;;;;4.57;4.18;;;;;;;13.63;69.09;100663.97;5044335;28;20378;-40
2021/10/02 06:57:07;;;;;;;3.85;3.45;;;;;;;13.61;68.71;100652.56;5042178;28;20505;-41
2021/10/02 06:59:33;;;;;;;5.25;4.20;;;;;;;13.62;69.17;100662.25;5040650;28;20049;-41
2021/10/02 07:01:59;;;;;;;3.83;3.40;;;;;;;13.61;69.41;100665.81;5041751;28;20022;-41
2021/10/02 07:04:24;;;;;;;3.60;3.30;;;;;;;13.60;69.23;100662.28;5044393;28;20050;-41
2021/10/02 07:06:50;;;;;;;4.15;3.75;;;;;;;13.62;69.11;100656.06;5044661;28;20626;-41
2021/10/02 07:09:15;;;;;;;4.13;3.83;;;;;;;13.60;69.36;100648.16;5046992;28;20033;-41
2021/10/02 07:11:40;;;;;;;4.43;4.05;;;;;;;13.62;69.30;100656.94;5043513;28;20049;-41
2021/10/02 07:14:06;;;;;;;3.85;3.40;;;;;;;13.63;69.12;100657.84;5044180;28;20128;-41
2021/10/02 07:16:31;;;;;;;4.35;3.70;;;;;;;13.61;69.26;100652.56;5044637;28;20036;-41
2021/10/02 07:18:56;;;;;;;4.13;3.83;;;;;;;13.62;69.34;100653.41;5043128;28;20052;-41
2021/10/02 07:21:22;;;;;;;4.72;4.00;;;;;;;13.61;69.44;100639.31;5044767;28;20040;-41
2021/10/02 07:23:47;;;;;;;3.72;3.38;;;;;;;13.62;69.13;100635.75;5042638;28;20024;-41
2021/10/02 07:26:13;;;;;;;4.38;3.95;;;;;;;13.62;69.71;100646.34;5043245;28;20534;-41
2021/10/02 07:28:39;;;;;;;3.92;3.63;;;;;;;13.60;69.00;100643.72;5046159;28;20033;-41
2021/10/02 07:31:04;;;;;;;3.75;3.28;;;;;;;13.62;69.25;100645.47;5042450;28;20036;-41
2021/10/02 07:33:29;;;;;;;3.30;3.00;;;;;;;13.62;69.34;100648.13;5042664;28;20020;-41
2021/10/02 07:35:55;;;;;;;3.53;3.22;;;;;;;13.61;69.26;100649.91;5041621;28;20531;-41
2021/10/02 07:38:20;;;;;;;3.53;3.22;;;;;;;13.60;69.28;100658.75;5046613;28;20053;-41
2021/10/02 07:40:46;;;;;;;3.28;2.97;;;;;;;13.62;69.56;100651.66;5040415;28;20104;-41
2021/10/02 07:43:13;;;;;;;3.70;3.33;;;;;;;13.62;69.39;100662.25;5039116;28;20033;-41
2021/10/02 07:45:40;;;;;;;3.50;3.20;;;;;;;13.62;69.14;100650.75;5045049;28;20509;-41
2021/10/02 07:48:07;;;;;;;3.88;3.47;;;;;;;13.62;69.38;100648.13;5044455;28;20513;-41
2021/10/02 07:50:33;;;;;;;4.90;3.85;;;;;;;13.62;69.39;100650.75;5040445;28;20040;-44
2021/10/02 07:52:58;;;;;;;3.30;3.00;;;;;;;13.62;69.43;100658.72;5042791;28;20029;-41
2021/10/02 07:55:24;;;;;;;3.78;3.47;;;;;;;13.62;69.43;100659.59;5038990;28;20029;-41
2021/10/02 07:57:50;;;;;;;3.28;2.97;;;;;;;13.62;69.44;100651.66;5042239;28;20033;-41
2021/10/02 08:00:18;;;;;;;10.75;3.40;;;;;;;13.71;70.04;100655.88;5050048;28;20055;-45
2021/10/02 08:02:48;;;;;;;12.43;4.30;;;;;;;13.79;70.05;100653.03;5082303;22;20124;-43
2021/10/02 08:05:14;;;;;;;8.60;3.88;;;;;;;13.80;70.27;100646.81;5044451;28;20036;-42
2021/10/02 08:07:42;;;;;;;7.57;3.97;;;;;;;13.79;70.12;100655.69;5031674;28;20045;-42
2021/10/02 08:10:09;;;;;;;9.45;4.07;;;;;;;13.80;70.36;100658.31;5013601;28;20029;-42
2021/10/02 08:12:34;;;;;;;9.18;3.72;;;;;;;13.80;70.24;100654.78;5028195;28;20032;-43
2021/10/02 08:15:00;;;;;;;4.20;3.80;;;;;;;13.78;70.17;100646.88;5030865;28;20552;-42
2021/10/02 08:17:27;;;;;;;5.70;3.65;;;;;;;13.80;70.00;100657.41;5029155;28;20037;-42
2021/10/02 08:19:55;;;;;;;5.05;3.20;;;;;;;13.80;70.20;100660.06;5033021;28;20025;-42
2021/10/02 08:22:23;;;;;;;3.53;3.22;;;;;;;13.80;69.80;100654.78;5028857;28;20491;-42
2021/10/02 08:24:51;;;;;;;3.45;3.17;;;;;;;13.79;70.07;100653.03;5025521;28;20519;-42
2021/10/02 08:27:16;;;;;;;3.78;3.25;;;;;;;13.78;69.98;100646.88;5061349;22;20042;-42
2021/10/02 08:29:41;;;;;;;3.85;3.30;;;;;;;13.78;69.89;100640.69;5064678;23;20045;-42
2021/10/02 08:32:08;;;;;;;3.65;3.35;;;;;;;13.78;69.96;100635.41;5075103;22;20144;-42
2021/10/02 08:34:34;;;;;;;3.22;2.67;;;;;;;13.78;69.93;100644.22;5029454;28;20091;-42
2021/10/02 08:36:59;;;;;;;4.82;3.50;;;;;;;13.78;69.85;100649.53;5044600;23;20041;-42
2021/10/02 08:39:24;;;;;;;6.38;2.95;;;;;;;13.77;69.80;100649.56;5030516;28;20040;-41
2021/10/02 08:41:50;;;;;;;3.28;2.97;;;;;;;13.78;69.52;100646.88;5053843;23;20049;-42
2021/10/02 08:44:17;;;;;;;3.50;3.20;;;;;;;13.77;69.61;100660.16;5038843;28;20036;-44
2021/10/02 08:46:45;;;;;;;3.47;2.83;;;;;;;13.76;69.58;100653.97;5045325;28;20442;-42
2021/10/02 08:49:32;;;;;;;4.40;2.88;;;;;;;13.78;69.77;100657.47;5038171;28;20447;-43
2021/10/02 08:52:02;;;;;;;4.78;3.50;;;;;;;13.78;69.78;100653.94;5049364;28;20463;-41
2021/10/02 08:54:28;;;;;;;4.32;3.00;;;;;;;13.78;69.79;100652.19;5046707;28;20506;-42
2021/10/02 08:56:53;;;;;;;4.35;3.50;;;;;;;13.79;69.95;100653.03;5043796;28;20064;-42
2021/10/02 08:59:19;;;;;;;7.13;3.10;;;;;;;13.78;69.86;100646.00;5045330;28;20100;-42
2021/10/02 09:01:45;;;;;;;3.33;3.03;;;;;;;13.79;69.87;100661.88;5078796;22;20443;-42
2021/10/02 09:04:10;;;;;;;3.03;2.38;;;;;;;13.79;69.82;100663.63;5046887;23;20049;-42
2021/10/02 09:06:36;;;;;;;3.40;3.10;;;;;;;13.79;69.87;100658.34;5026745;28;20034;-41
2021/10/02 09:09:05;;;;;;;4.40;3.10;;;;;;;13.79;69.84;100650.38;5011030;28;20411;-41
2021/10/02 09:11:31;;;;;;;4.28;3.50;;;;;;;13.80;69.90;100649.47;5012513;28;20104;-45
2021/10/02 09:13:57;;;;;;;3.50;3.03;;;;;;;13.81;69.98;100651.22;5005819;28;20195;-41
2021/10/02 09:16:22;;;;;;;3.63;2.78;;;;;;;13.80;69.97;100649.47;5005592;28;20487;-41
2021/10/02 09:18:48;;;;;;;3.45;3.15;;;;;;;13.81;69.91;100654.75;5006408;28;20045;-41
2021/10/02 09:21:13;;;;;;;3.70;2.88;;;;;;;13.81;69.99;100656.53;5009154;28;20125;-42
2021/10/02 09:23:43;;;;;;;4.85;3.42;;;;;;;13.82;69.91;100647.66;5010751;28;20040;-42
2021/10/02 09:26:09;;;;;;;3.40;3.10;;;;;;;13.82;70.15;100648.56;5009386;28;20706;-41
2021/10/02 09:28:43;;;;;;;3.90;3.08;;;;;;;13.82;70.13;100647.66;5006416;28;20030;-43
2021/10/02 09:31:08;;;;;;;4.90;3.13;;;;;;;13.82;70.06;100643.25;4992516;28;20140;-42
2021/10/02 09:33:34;;;;;;;3.67;3.22;;;;;;;13.83;70.00;100647.63;5009197;28;20101;-41
2021/10/02 09:35:59;;;;;;;3.72;3.20;;;;;;;13.82;70.07;100652.97;5009529;28;20080;-43
2021/10/02 09:38:25;;;;;;;3.17;2.88;;;;;;;13.83;70.03;100641.44;5008625;28;20460;-42
2021/10/02 09:40:57;;;;;;;4.60;3.13;;;;;;;13.83;69.98;100644.09;5010453;28;20030;-43
2021/10/02 09:43:24;;;;;;;3.15;2.80;;;;;;;13.84;69.83;100651.16;5013758;28;20037;-41
2021/10/02 09:45:50;;;;;;;5.90;2.92;;;;;;;13.83;69.98;100650.28;5012945;28;20102;-43
2021/10/02 09:48:18;;;;;;;3.83;3.10;;;;;;;13.84;69.86;100640.56;5012514;28;20496;-42
2021/10/02 09:50:48;;;;;;;3.17;2.72;;;;;;;13.85;69.95;100644.94;5012497;28;20064;-42
2021/10/02 09:53:15;;;;;;;4.25;2.95;;;;;;;13.84;69.87;100652.03;5011705;28;20488;-43
2021/10/02 09:55:44;;;;;;;3.10;2.80;;;;;;;13.84;70.01;100646.72;5010249;28;20028;-42
2021/10/02 09:58:27;;;;;;;2.55;2.35;;;;;;;13.85;70.02;100631.69;5012868;28;20480;-43
2021/10/02 10:00:52;;;;;;;2.70;2.50;;;;;;;13.85;69.85;100631.69;5012700;28;20076;-42
2021/10/02 10:03:18;;;;;;;4.90;2.33;;;;;;;13.85;69.91;100631.69;5014096;28;20026;-43
2021/10/02 10:05:46;;;;;;;6.78;2.70;;;;;;;13.87;69.96;100642.28;5012832;28;20029;-42
2021/10/02 10:08:14;;;;;;;2.65;2.45;;;;;;;13.86;69.99;100638.72;5011298;28;20038;-43
2021/10/02 10:10:42;;;;;;;2.88;2.67;;;;;;;13.87;70.07;100645.78;5010232;28;20029;-42
2021/10/02 10:13:16;;;;;;;2.72;2.47;;;;;;;13.87;70.32;100656.38;5011079;28;20490;-42
2021/10/02 10:15:46;;;;;;;2.55;2.35;;;;;;;13.87;70.28;100651.06;5011677;28;20026;-43
2021/10/02 10:18:34;;;;;;;2.80;2.40;;;;;;;13.88;70.30;100658.13;5012492;28;20025;-42
2021/10/02 10:21:01;;;;;;;3.13;2.15;;;;;;;13.87;70.11;100647.56;5013022;28;20450;-43
2021/10/02 10:23:41;;;;;;;2.67;2.17;;;;;;;13.87;70.20;100642.28;5007668;28;20045;-42
2021/10/02 10:26:17;;;;;;;3.20;2.25;;;;;;;13.89;70.07;100640.44;5010186;28;20487;-42
2021/10/02 10:28:48;;;;;;;2.70;2.40;;;;;;;13.90;70.36;100637.75;5009836;28;20077;-42
2021/10/02 10:31:18;;;;;;;2.67;2.40;;;;;;;13.90;70.43;100636.91;5010378;28;20026;-43
2021/10/02 10:33:50;;;;;;;2.85;1.95;;;;;;;13.89;70.55;100622.75;5011482;28;20037;-42
2021/10/02 10:36:18;;;;;;;2.22;2.03;;;;;;;13.91;70.45;100625.38;5011760;28;20033;-43
2021/10/02 10:38:44;;;;;;;2.47;2.25;;;;;;;13.91;70.61;100610.31;5011941;28;20021;-43
2021/10/02 10:41:11;;;;;;;2.25;1.90;;;;;;;13.93;70.61;100610.28;5009785;28;20029;-43
2021/10/02 10:43:37;;;;;;;2.40;2.20;;;;;;;13.92;70.55;100606.78;5009554;28;20534;-42
2021/10/02 10:46:05;;;;;;;1.85;1.75;;;;;;;13.92;70.44;100606.78;5009276;28;20030;-43
2021/10/02 10:48:30;;;;;;;2.10;1.95;;;;;;;13.93;70.62;100597.03;5009044;28;20032;-43
2021/10/02 10:51:02;;;;;;;2.47;2.17;;;;;;;13.93;70.57;100603.22;5008536;28;20034;-43
2021/10/02 10:53:35;;;;;;;2.22;2.03;;;;;;;13.93;70.72;100592.63;5010171;28;20104;-42
2021/10/02 10:56:01;;;;;;;2.10;1.90;;;;;;;13.95;70.72;100589.94;5010495;28;20718;-42
2021/10/02 10:58:29;;;;;;;2.13;1.90;;;;;;;13.96;70.54;100596.97;5009611;28;20034;-42
2021/10/02 11:00:56;;;;;;;2.65;2.13;;;;;;;13.95;70.72;100585.50;5010760;28;20026;-42
2021/10/02 11:03:35;;;;;;;2.30;1.98;;;;;;;13.96;70.71;100576.63;5012172;28;20022;-42
2021/10/02 11:06:01;;;;;;;2.85;2.20;;;;;;;13.96;70.79;100570.44;5010977;28;20415;-42
2021/10/02 11:09:05;;;;;;;2.85;1.95;;;;;;;13.97;70.64;100564.22;5010241;28;20022;-42
2021/10/02 11:11:46;;;;;;;3.40;2.20;;;;;;;13.98;70.68;100569.50;5008368;28;20699;-42
2021/10/02 11:14:16;;;;;;;2.15;1.95;;;;;;;13.98;70.93;100558.88;5008773;28;20022;-42
2021/10/02 11:16:44;;;;;;;2.08;1.98;;;;;;;13.99;70.96;100551.81;5008507;28;20032;-42
2021/10/02 11:19:28;;;;;;;1.70;1.60;;;;;;;14.00;70.84;100555.34;5007456;28;20029;-42
2021/10/02 11:22:34;;;;;;;1.60;1.50;;;;;;;14.01;70.93;100562.38;5008184;28;20030;-42
2021/10/02 11:25:00;;;;;;;1.55;1.40;;;;;;;14.00;71.05;100547.41;5006887;28;20014;-42
2021/10/02 11:27:25;;;;;;;1.65;1.55;;;;;;;14.00;71.07;100540.28;5008485;28;20048;-42
2021/10/02 11:29:51;;;;;;;1.40;1.30;;;;;;;14.01;71.13;100551.78;5010182;28;20033;-42
2021/10/02 11:32:17;;;;;;;2.28;1.63;;;;;;;14.01;70.88;100551.78;5008705;28;20029;-42
2021/10/02 11:35:07;;;;;;;1.50;1.40;;;;;;;14.02;70.98;100548.22;5008213;28;20447;-44
2021/10/02 11:37:44;;;;;;;1.50;1.40;;;;;;;14.04;70.97;100549.06;5007328;28;20062;-41
2021/10/02 11:40:40;;;;;;;1.65;1.52;;;;;;;14.03;70.96;100539.34;5006398;28;20057;-42
2021/10/02 11:43:11;;;;;;;1.60;1.50;;;;;;;14.04;71.22;100541.09;5006617;28;20030;-42
2021/10/02 11:45:36;;;;;;;;;;;;;;;14.05;71.02;100542.84;5011191;28;20041;-42
2021/10/02 11:48:12;;;;;;;1.83;1.50;;;;;;;14.04;71.34;100531.34;5005114;28;20303;-41
2021/10/02 11:50:38;;;;;;;1.70;1.60;;;;;;;14.05;71.40;100526.94;5008334;28;20293;-41
2021/10/02 11:53:03;;;;;;;1.60;1.50;;;;;;;14.05;71.31;100522.50;5008917;28;20121;-41
2021/10/02 11:55:39;;;;;;;1.70;1.60;;;;;;;14.06;71.41;100518.06;5008918;28;20017;-40
2021/10/02 11:58:07;;;;;;;1.50;1.40;;;;;;;14.07;71.29;100504.75;5008342;28;20447;-41
2021/10/02 12:03:59;;;;;;;1.70;1.60;;;;;;;14.08;71.48;100503.84;5010246;28;20173;-42
2021/10/02 12:06:24;;;;;;;2.17;1.73;;;;;;;14.08;71.28;100502.97;5008888;28;20116;-40
2021/10/02 12:08:50;;;;;;;1.50;1.33;;;;;;;14.10;71.53;100498.50;5011060;28;20113;-44
2021/10/02 12:11:16;;;;;;;2.08;1.25;;;;;;;14.09;71.39;100502.94;5004603;28;20566;-44
2021/10/02 12:13:45;;;;;;;1.58;1.40;;;;;;;14.12;71.54;100502.00;5006522;28;20022;-41
2021/10/02 12:16:13;;;;;;;1.50;1.40;;;;;;;14.13;71.48;100498.41;5007535;28;20033;-42
2021/10/02 12:18:57;;;;;;;2.00;1.80;;;;;;;14.14;71.40;100502.81;5007339;28;20084;-41
2021/10/02 12:21:22;;;;;;;1.90;1.80;;;;;;;14.15;71.45;100493.06;5006773;28;20156;-42
2021/10/02 12:24:06;;;;;;;2.50;1.70;;;;;;;14.15;71.31;100496.59;5005774;28;20037;-42